»·PEaware :: N75739 KSBD-KLAS

N75739 :: KSBD-KLAS

FLIGHT INFORMATION

Flight Status: Arrived
Operator: Privately registered:
United States
More flights under this callsign
Pilot: Jacob C. (16006)
Aircraft: ECLIPSE 500
(EA50)
More flights by this aircraft type
Origin: KSBD San Bernardino Intl
United States
Destination: KLAS McCarran Intl
United States
More flights between these airports :: More routes between these airports
Route: +PDZ V442 APLES V394 DAG CLARR2 KLAS
File this flight plan on PilotEdge
Remarks:
Altitude:
(Current/Filed)
30,000ft
Speed:
(Current/Filed)
369kts
Departed: 16-Jul-17 02:01 PM
Arrived: 16-Jul-17 03:00 PM
Distance/Time
Traveled:
157nm/0:58
Distance/Time
To Go:
Arrived

Flight Plot

Page will automatically refresh every two minutes.

Flight plan parsing failed; only flown route is shown


Map Options




Map Legend


Flown Route
Filed Route
Departure Airport
Arrival Airport
Navaid (VOR, NDB)
Fix

Horizontal Profiles

Position Reports

Time Latitude Longitude Heading Altitude Ground
Speed
16-Jul-17 13:44 34.104711 -117.245506 325 1160ft 0kts
16-Jul-17 13:45 34.104711 -117.245506 325 1160ft 0kts
16-Jul-17 13:46 34.104711 -117.245506 325 1160ft 0kts
16-Jul-17 13:47 34.104711 -117.245506 325 1160ft 0kts
16-Jul-17 13:48 34.104711 -117.245506 325 1160ft 0kts
16-Jul-17 13:49 34.104711 -117.245506 325 1160ft 0kts
16-Jul-17 13:50 34.104711 -117.245506 325 1160ft 0kts
16-Jul-17 13:51 34.104711 -117.245506 325 1160ft 0kts
16-Jul-17 13:52 34.104711 -117.245506 325 1160ft 0kts
16-Jul-17 13:53 34.104711 -117.245506 325 1160ft 0kts
16-Jul-17 13:54 34.104711 -117.245506 325 1160ft 0kts
16-Jul-17 13:55 34.104711 -117.245506 325 1160ft 0kts
16-Jul-17 13:56 34.104274 -117.245278 146 1160ft 0kts
16-Jul-17 13:57 34.104056 -117.245065 134 1160ft 0kts
16-Jul-17 13:58 34.102317 -117.244645 172 1160ft 18kts
16-Jul-17 13:59 34.099712 -117.242732 89 1160ft 16kts
16-Jul-17 14:00 34.095913 -117.241963 189 1160ft 13kts
16-Jul-17 14:01 34.094150 -117.244973 250 1160ft 13kts
16-Jul-17 14:02 34.092361 -117.250792 214 1160ft 19kts
16-Jul-17 14:03 34.091461 -117.250692 152 1160ft 9kts
16-Jul-17 14:04 34.098926 -117.222314 72 1866ft 155kts
16-Jul-17 14:05 34.080342 -117.191555 211 4621ft 162kts
16-Jul-17 14:06 34.065810 -117.247328 252 6008ft 243kts
16-Jul-17 14:07 34.065527 -117.322014 281 8581ft 236kts
16-Jul-17 14:08 34.078091 -117.393878 281 11440ft 222kts
16-Jul-17 14:09 34.092809 -117.474733 281 12003ft 291kts
16-Jul-17 14:10 34.110659 -117.573653 282 12001ft 324kts
16-Jul-17 14:11 34.128334 -117.671215 281 12008ft 302kts
16-Jul-17 14:12 34.145823 -117.767509 281 12022ft 301kts
16-Jul-17 14:13 34.163554 -117.864943 281 12034ft 301kts
16-Jul-17 14:14 34.181205 -117.961755 281 12028ft 301kts
16-Jul-17 14:15 34.198986 -118.059109 281 12020ft 301kts
16-Jul-17 14:16 34.216690 -118.155867 281 12013ft 301kts
16-Jul-17 14:17 34.234220 -118.251521 281 12006ft 301kts
16-Jul-17 14:18 34.251141 -118.343482 282 13244ft 276kts
16-Jul-17 14:19 34.296797 -118.387696 17 14315ft 281kts
16-Jul-17 14:20 34.331353 -118.317008 72 16616ft 249kts
16-Jul-17 14:21 34.354491 -118.237703 72 18318ft 258kts
16-Jul-17 14:22 34.378154 -118.156317 71 19805ft 266kts
16-Jul-17 14:23 34.400733 -118.076795 71 21269ft 261kts
16-Jul-17 14:24 34.422600 -117.993721 71 22335ft 268kts
16-Jul-17 14:25 34.444927 -117.908176 71 23365ft 272kts
16-Jul-17 14:26 34.467504 -117.820993 71 24316ft 276kts
16-Jul-17 14:27 34.490212 -117.732641 71 25248ft 278kts
16-Jul-17 14:28 34.512835 -117.644004 71 26111ft 281kts
16-Jul-17 14:29 34.535699 -117.553884 71 26895ft 284kts
16-Jul-17 14:30 34.558646 -117.463020 71 27576ft 287kts
16-Jul-17 14:31 34.581021 -117.374115 71 28175ft 291kts
16-Jul-17 14:32 34.604097 -117.282159 71 28741ft 294kts
16-Jul-17 14:33 34.627767 -117.187621 71 29247ft 297kts
16-Jul-17 14:34 34.651627 -117.092141 71 29675ft 301kts
16-Jul-17 14:35 34.675997 -116.994502 71 29948ft 309kts
16-Jul-17 14:36 34.701317 -116.895510 71 29831ft 319kts
16-Jul-17 14:37 34.728730 -116.791568 71 29343ft 327kts
16-Jul-17 14:38 34.781083 -116.713089 22 28795ft 320kts
16-Jul-17 14:39 34.857056 -116.662048 30 27811ft 315kts
16-Jul-17 14:40 34.928404 -116.605000 38 26821ft 309kts
16-Jul-17 14:41 34.992463 -116.524849 43 25418ft 359kts
16-Jul-17 14:42 35.063093 -116.437972 45 23994ft 367kts
16-Jul-17 14:43 35.125871 -116.360866 45 22953ft 361kts
16-Jul-17 14:44 35.193616 -116.277648 46 21587ft 352kts
16-Jul-17 14:45 35.261146 -116.194522 46 20193ft 344kts
16-Jul-17 14:46 35.326792 -116.113527 46 18805ft 335kts
16-Jul-17 14:47 35.390809 -116.034355 46 17586ft 329kts
16-Jul-17 14:48 35.453154 -115.957069 46 16505ft 323kts
16-Jul-17 14:49 35.514534 -115.880804 46 15422ft 317kts
16-Jul-17 14:50 35.575417 -115.804983 45 14329ft 312kts
16-Jul-17 14:51 35.634904 -115.730731 45 13243ft 307kts
16-Jul-17 14:52 35.693538 -115.656862 46 13027ft 306kts
16-Jul-17 14:53 35.754411 -115.586452 20 12681ft 306kts
16-Jul-17 14:54 35.835308 -115.568807 38 11720ft 301kts
16-Jul-17 14:55 35.857663 -115.474524 81 10718ft 295kts
16-Jul-17 14:56 35.869877 -115.377499 81 9726ft 264kts
16-Jul-17 14:57 35.879374 -115.304117 81 8727ft 209kts
16-Jul-17 14:58 35.907107 -115.249721 21 7747ft 211kts
16-Jul-17 14:59 35.960030 -115.225638 21 6294ft 191kts
16-Jul-17 15:00 36.006986 -115.204740 21 4709ft 181kts
16-Jul-17 15:01 36.052407 -115.184007 26 3012ft 164kts
16-Jul-17 15:02 36.084851 -115.164882 28 2116ft 94kts
16-Jul-17 15:03 36.093512 -115.159699 65 2114ft 14kts
16-Jul-17 15:04 36.092199 -115.155601 116 2114ft 0kts
16-Jul-17 15:05 36.092199 -115.155601 116 2114ft 0kts
16-Jul-17 15:06 36.091152 -115.153752 93 2114ft 0kts
16-Jul-17 15:07 36.091152 -115.153752 93 2114ft 0kts

Navigation Log

Ident Type
Flight plan parsing failed, navigation log unavailable